Time;durP1;ratioP1;P1;durP2;ratioP2;P2;SDS_P1;SDS_P2;PMS_P1;PMS_P2;Temp;Humidity;BMP_temperature;BMP_pressure;BME280_temperature;BME280_humidity;BME280_pressure;Samples;Min_cycle;Max_cycle;Signal;HPM_P1;HPM_P2
2022/10/01 00:01:14;;;;;;;0.10;0.03;;;22.20;47.10;;;;;;5050720;28;20825;-50
2022/10/01 00:03:41;;;;;;;0.20;0.00;;;22.10;47.10;;;;;;5049220;28;20037;-52
2022/10/01 00:06:11;;;;;;;0.08;0.08;;;22.20;47.20;;;;;;5047366;28;20040;-51
2022/10/01 00:08:39;;;;;;;0.17;0.05;;;22.20;47.30;;;;;;5060373;28;20033;-48
2022/10/01 00:11:10;;;;;;;0.40;0.10;;;22.10;47.30;;;;;;5047870;28;20409;-48
2022/10/01 00:13:39;;;;;;;1.45;1.35;;;22.10;47.40;;;;;;5047363;28;20127;-47
2022/10/01 00:16:09;;;;;;;1.33;0.20;;;22.10;47.40;;;;;;5048969;28;20029;-47
2022/10/01 00:18:37;;;;;;;0.10;0.03;;;22.10;47.50;;;;;;5057533;28;20531;-47
2022/10/01 00:21:09;;;;;;;0.60;0.45;;;22.10;47.50;;;;;;5066457;28;20049;-47
2022/10/01 00:23:37;;;;;;;0.10;0.10;;;22.10;47.60;;;;;;5061267;28;20116;-51
2022/10/01 00:26:13;;;;;;;0.10;0.10;;;22.10;47.60;;;;;;5052492;28;20045;-48
2022/10/01 00:28:44;;;;;;;0.13;0.00;;;22.10;47.70;;;;;;5051169;28;20085;-49
2022/10/01 00:31:13;;;;;;;0.00;0.00;;;22.10;47.80;;;;;;5062503;28;20485;-47
2022/10/01 00:33:40;;;;;;;0.10;0.10;;;22.10;47.80;;;;;;5049216;28;20400;-48
2022/10/01 00:36:08;;;;;;;0.03;0.03;;;22.00;47.80;;;;;;5053939;28;20053;-47
2022/10/01 00:38:36;;;;;;;0.52;0.10;;;22.00;47.90;;;;;;5047321;28;20127;-48
2022/10/01 00:41:04;;;;;;;0.90;0.00;;;22.00;48.10;;;;;;5042195;28;20062;-47
2022/10/01 00:43:33;;;;;;;1.95;0.20;;;22.00;48.20;;;;;;5047828;28;20474;-46
2022/10/01 00:46:07;;;;;;;1.65;0.00;;;22.10;48.30;;;;;;5048988;28;20548;-46
2022/10/01 00:48:39;;;;;;;1.02;0.00;;;22.00;48.30;;;;;;5049071;28;20045;-48
2022/10/01 00:51:06;;;;;;;0.50;0.10;;;22.00;48.40;;;;;;5052502;28;20130;-47
2022/10/01 00:53:34;;;;;;;1.88;0.00;;;22.00;48.50;;;;;;5059484;28;20032;-48
2022/10/01 00:56:01;;;;;;;0.28;0.00;;;22.00;48.50;;;;;;5066812;28;20045;-48
2022/10/01 00:58:28;;;;;;;0.63;0.35;;;22.00;48.60;;;;;;5066518;28;20064;-47
2022/10/01 01:00:57;;;;;;;0.10;0.00;;;22.00;48.60;;;;;;5066397;28;20106;-46
2022/10/01 01:03:26;;;;;;;0.08;0.08;;;22.00;48.70;;;;;;5061511;28;20041;-48
2022/10/01 01:05:53;;;;;;;0.10;0.03;;;22.00;48.80;;;;;;5051933;28;20041;-50
2022/10/01 01:08:20;;;;;;;4.85;0.10;;;22.00;48.80;;;;;;5055402;28;20040;-46
2022/10/01 01:10:54;;;;;;;1.58;0.10;;;22.00;48.80;;;;;;5052836;28;20071;-47
2022/10/01 01:13:30;;;;;;;1.35;0.00;;;22.00;48.80;;;;;;5058901;28;20044;-52
2022/10/01 01:16:01;;;;;;;;;;;22.00;48.90;;;;;;5067038;28;20300;-45
2022/10/01 01:18:35;;;;;;;0.00;0.00;;;22.00;48.70;;;;;;5066687;28;19936;-47
2022/10/01 01:21:22;;;;;;;0.40;0.40;;;21.90;49.00;;;;;;5066514;28;20052;-45
2022/10/01 01:24:29;;;;;;;1.55;0.10;;;22.00;49.10;;;;;;5053116;28;20124;-46
2022/10/01 01:27:18;;;;;;;0.32;0.00;;;22.00;49.20;;;;;;5028630;28;20124;-47
2022/10/01 01:29:52;;;;;;;0.10;0.00;;;22.00;49.30;;;;;;5041588;28;20043;-49
2022/10/01 01:32:25;;;;;;;0.28;0.00;;;22.00;49.40;;;;;;5047155;28;20037;-49
2022/10/01 01:34:55;;;;;;;0.00;0.00;;;22.00;49.40;;;;;;5055800;28;20490;-46
2022/10/01 01:37:28;;;;;;;0.85;0.30;;;22.00;49.40;;;;;;5065935;28;20462;-49
2022/10/01 01:39:57;;;;;;;0.00;0.00;;;22.00;49.50;;;;;;5060307;28;20706;-47
2022/10/01 01:42:29;;;;;;;0.10;0.00;;;22.00;49.50;;;;;;5047148;28;20041;-47
2022/10/01 01:45:01;;;;;;;0.20;0.00;;;22.00;49.50;;;;;;5047341;28;20049;-50
2022/10/01 01:47:31;;;;;;;0.57;0.00;;;22.00;49.60;;;;;;5046090;28;20444;-48
2022/10/01 01:50:01;;;;;;;0.00;0.00;;;22.00;49.60;;;;;;5048321;28;20501;-50
2022/10/01 01:52:28;;;;;;;0.40;0.00;;;22.00;49.60;;;;;;5050809;28;20091;-49
2022/10/01 01:54:57;;;;;;;0.00;0.00;;;22.00;49.70;;;;;;5059581;28;20115;-49
2022/10/01 01:57:24;;;;;;;0.45;0.00;;;22.00;49.70;;;;;;5070069;28;20119;-50
2022/10/01 01:59:51;;;;;;;0.32;0.00;;;22.00;49.70;;;;;;5057642;28;20512;-47
2022/10/01 02:02:22;;;;;;;0.10;0.10;;;22.00;49.80;;;;;;5055742;28;20045;-49
2022/10/01 02:04:54;;;;;;;0.10;0.00;;;22.00;49.90;;;;;;5069575;28;20572;-49
2022/10/01 02:07:51;;;;;;;0.15;0.00;;;22.00;49.90;;;;;;5055385;28;20826;-48
2022/10/01 02:10:43;;;;;;;0.10;0.00;;;22.00;49.90;;;;;;5051778;28;20373;-47
2022/10/01 02:13:23;;;;;;;0.10;0.10;;;22.00;50.00;;;;;;5055136;28;20045;-48
2022/10/01 02:16:00;;;;;;;0.00;0.00;;;22.00;50.10;;;;;;5055762;28;20051;-49
2022/10/01 02:18:37;;;;;;;0.00;0.00;;;22.00;50.20;;;;;;5060388;28;20037;-47
2022/10/01 02:21:14;;;;;;;0.60;0.00;;;22.00;50.30;;;;;;5069187;28;20048;-49
2022/10/01 02:23:44;;;;;;;0.08;0.00;;;22.00;50.30;;;;;;5051635;28;20051;-48
2022/10/01 02:26:18;;;;;;;0.00;0.00;;;22.00;50.30;;;;;;5050917;28;20037;-46
2022/10/01 02:28:47;;;;;;;0.10;0.05;;;22.00;50.40;;;;;;5064357;28;20048;-49
2022/10/01 02:31:16;;;;;;;0.00;0.00;;;22.00;50.50;;;;;;5069227;28;20134;-47
2022/10/01 02:33:46;;;;;;;0.38;0.20;;;22.00;50.50;;;;;;5061299;28;20102;-46
2022/10/01 02:36:16;;;;;;;1.35;0.00;;;22.00;50.60;;;;;;5049758;28;20619;-47
2022/10/01 02:38:45;;;;;;;0.10;0.00;;;22.00;50.80;;;;;;5049929;28;20034;-49
2022/10/01 02:41:15;;;;;;;0.00;0.00;;;22.00;50.80;;;;;;5058860;28;20051;-48
2022/10/01 02:43:50;;;;;;;0.00;0.00;;;22.00;50.90;;;;;;5053141;28;20041;-49
2022/10/01 02:46:22;;;;;;;0.00;0.00;;;22.00;50.90;;;;;;5050010;28;20077;-48
2022/10/01 02:48:52;;;;;;;0.30;0.00;;;22.00;51.00;;;;;;5049484;28;20531;-49
2022/10/01 02:51:28;;;;;;;0.22;0.05;;;22.00;51.00;;;;;;5054244;28;20064;-47
2022/10/01 02:54:01;;;;;;;0.00;0.00;;;22.00;51.20;;;;;;5055286;28;20045;-48
2022/10/01 02:59:13;;;;;;;0.05;0.00;;;22.00;51.20;;;;;;5045363;28;20125;-48
2022/10/01 03:01:40;;;;;;;0.00;0.00;;;22.00;51.30;;;;;;5068652;28;20049;-47
2022/10/01 03:04:09;;;;;;;2.85;0.17;;;22.00;51.30;;;;;;5051029;28;20517;-47
2022/10/01 03:06:36;;;;;;;0.20;0.20;;;22.00;51.30;;;;;;5049232;28;20037;-48
2022/10/01 03:09:03;;;;;;;0.00;0.00;;;22.00;51.40;;;;;;5049297;28;20967;-47
2022/10/01 03:11:30;;;;;;;0.00;0.00;;;22.00;51.30;;;;;;5049465;28;20037;-47
2022/10/01 03:13:57;;;;;;;0.00;0.00;;;22.00;51.40;;;;;;5049638;28;20124;-47
2022/10/01 03:16:24;;;;;;;0.00;0.00;;;22.00;51.40;;;;;;5051535;28;20045;-47
2022/10/01 03:18:51;;;;;;;0.10;0.00;;;22.00;51.40;;;;;;5067955;28;20040;-49
2022/10/01 03:21:20;;;;;;;0.17;0.00;;;22.00;51.50;;;;;;5067808;28;20055;-47
2022/10/01 03:23:47;;;;;;;0.00;0.00;;;22.00;51.50;;;;;;5064918;28;20196;-48
2022/10/01 03:26:14;;;;;;;0.93;0.00;;;22.00;51.50;;;;;;5068089;28;20045;-47
2022/10/01 03:28:41;;;;;;;1.55;0.00;;;22.00;51.50;;;;;;5065303;28;20041;-46
2022/10/01 03:31:09;;;;;;;0.10;0.00;;;22.00;51.60;;;;;;5066231;28;20044;-46
2022/10/01 03:33:36;;;;;;;0.00;0.00;;;22.00;51.60;;;;;;5052827;28;20048;-47
2022/10/01 03:36:04;;;;;;;0.00;0.00;;;22.10;51.60;;;;;;5048922;28;20033;-46
2022/10/01 03:38:33;;;;;;;0.00;0.00;;;22.00;51.60;;;;;;5054578;28;20115;-47
2022/10/01 03:41:00;;;;;;;0.00;0.00;;;22.00;51.60;;;;;;5048839;28;20051;-48
2022/10/01 03:43:27;;;;;;;0.00;0.00;;;22.10;51.70;;;;;;5048687;28;20420;-47
2022/10/01 03:45:55;;;;;;;0.10;0.00;;;22.10;51.70;;;;;;5048840;28;20047;-46
2022/10/01 03:48:22;;;;;;;1.25;0.00;;;22.10;51.70;;;;;;5049661;28;20153;-46
2022/10/01 03:50:54;;;;;;;0.00;0.00;;;22.10;51.80;;;;;;5063376;28;20079;-47
2022/10/01 03:53:21;;;;;;;0.08;0.00;;;22.10;51.80;;;;;;5055829;28;20032;-49
2022/10/01 03:55:50;;;;;;;0.00;0.00;;;22.10;51.80;;;;;;5063525;28;20412;-47
2022/10/01 03:58:18;;;;;;;0.10;0.00;;;22.10;51.90;;;;;;5050875;28;20048;-47
2022/10/01 04:00:46;;;;;;;0.10;0.00;;;22.10;51.90;;;;;;5056886;28;20052;-46
2022/10/01 04:03:14;;;;;;;0.00;0.00;;;22.10;51.90;;;;;;5058824;28;20140;-46
2022/10/01 04:05:42;;;;;;;1.20;0.00;;;22.10;51.90;;;;;;5048250;28;20044;-48
2022/10/01 04:08:10;;;;;;;1.35;0.00;;;22.10;52.00;;;;;;5058499;28;20052;-55
2022/10/01 04:10:37;;;;;;;0.00;0.00;;;22.10;52.00;;;;;;5049089;28;20106;-50
2022/10/01 04:13:06;;;;;;;0.00;0.00;;;22.10;52.60;;;;;;5058884;28;20044;-46
2022/10/01 04:15:34;;;;;;;0.00;0.00;;;22.10;52.10;;;;;;5065880;28;20587;-46
2022/10/01 04:18:02;;;;;;;2.35;0.00;;;22.10;52.10;;;;;;5062506;28;20040;-46
2022/10/01 04:20:29;;;;;;;0.00;0.00;;;22.10;52.10;;;;;;5048110;28;20425;-48
2022/10/01 04:22:56;;;;;;;0.13;0.13;;;22.10;52.10;;;;;;5047904;28;20429;-49
2022/10/01 04:25:23;;;;;;;0.00;0.00;;;22.10;52.10;;;;;;5047882;28;20043;-49
2022/10/01 04:27:56;;;;;;;0.00;0.00;;;22.10;52.20;;;;;;5052440;28;20392;-46
2022/10/01 04:30:25;;;;;;;0.00;0.00;;;22.10;52.20;;;;;;5067264;28;20520;-46
2022/10/01 04:32:52;;;;;;;0.00;0.00;;;22.10;52.20;;;;;;5060494;28;20132;-46
2022/10/01 04:35:20;;;;;;;0.00;0.00;;;22.10;52.20;;;;;;5048010;28;20049;-47
2022/10/01 04:37:48;;;;;;;0.05;0.00;;;22.10;52.30;;;;;;5065424;28;20032;-50
2022/10/01 04:40:15;;;;;;;0.00;0.00;;;22.10;52.30;;;;;;5065813;28;20040;-45
2022/10/01 04:42:42;;;;;;;0.00;0.00;;;22.10;52.30;;;;;;5066929;28;20044;-49
2022/10/01 04:45:11;;;;;;;0.00;0.00;;;22.10;52.30;;;;;;5066895;28;20177;-48
2022/10/01 04:47:48;;;;;;;0.00;0.00;;;22.10;52.30;;;;;;5064057;28;20041;-48
2022/10/01 04:50:16;;;;;;;0.00;0.00;;;22.20;52.40;;;;;;5041547;28;20414;-46
2022/10/01 04:52:46;;;;;;;0.00;0.00;;;22.10;53.00;;;;;;5051036;28;20524;-49
2022/10/01 04:55:14;;;;;;;0.00;0.00;;;22.20;52.40;;;;;;5061456;28;20886;-50
2022/10/01 04:57:41;;;;;;;0.00;0.00;;;22.20;52.50;;;;;;5065730;28;20037;-50
2022/10/01 05:00:11;;;;;;;0.00;0.00;;;22.20;52.50;;;;;;5066306;28;20053;-46
2022/10/01 05:02:39;;;;;;;0.30;0.00;;;22.20;52.50;;;;;;5052910;28;20165;-46
2022/10/01 05:05:08;;;;;;;0.30;0.00;;;22.20;52.50;;;;;;5047794;28;20520;-49
2022/10/01 05:07:36;;;;;;;0.00;0.00;;;22.20;52.50;;;;;;5061905;28;20090;-51
2022/10/01 05:10:03;;;;;;;2.35;0.00;;;22.20;52.50;;;;;;5066643;28;20032;-45
2022/10/01 05:12:30;;;;;;;0.15;0.00;;;22.20;52.60;;;;;;5066844;28;20583;-48
2022/10/01 05:14:57;;;;;;;0.00;0.00;;;22.20;52.60;;;;;;5066476;28;20068;-48
2022/10/01 05:17:25;;;;;;;0.00;0.00;;;22.20;52.60;;;;;;5066435;28;20519;-46
2022/10/01 05:19:53;;;;;;;0.00;0.00;;;22.20;52.60;;;;;;5064570;28;20133;-46
2022/10/01 05:22:21;;;;;;;0.00;0.00;;;22.20;52.60;;;;;;5048463;28;20040;-49
2022/10/01 05:24:48;;;;;;;0.05;0.00;;;22.20;52.60;;;;;;5047271;28;20044;-46
2022/10/01 05:27:15;;;;;;;0.00;0.00;;;22.20;52.60;;;;;;5047831;28;20049;-45
2022/10/01 05:29:42;;;;;;;0.00;0.00;;;22.20;52.70;;;;;;5062666;28;20082;-46
2022/10/01 05:32:11;;;;;;;0.32;0.00;;;22.20;52.70;;;;;;5065115;28;20057;-48
2022/10/01 05:34:38;;;;;;;0.05;0.00;;;22.20;52.70;;;;;;5070414;28;20044;-48
2022/10/01 05:37:07;;;;;;;0.00;0.00;;;22.20;52.70;;;;;;5070453;28;20045;-48
2022/10/01 05:39:34;;;;;;;0.00;0.00;;;22.20;52.70;;;;;;5052417;28;20521;-48
2022/10/01 05:42:02;;;;;;;0.00;0.00;;;22.20;52.70;;;;;;5051139;28;20045;-46
2022/10/01 05:44:36;;;;;;;0.10;0.00;;;22.20;52.70;;;;;;5058978;28;20072;-48
2022/10/01 05:47:05;;;;;;;0.47;0.00;;;22.20;52.70;;;;;;5070095;28;20821;-48
2022/10/01 05:49:32;;;;;;;0.00;0.00;;;22.30;53.50;;;;;;5069840;28;20386;-48
2022/10/01 05:52:00;;;;;;;0.00;0.00;;;22.30;52.90;;;;;;5065829;28;20045;-48
2022/10/01 05:54:29;;;;;;;0.00;0.00;;;22.30;52.90;;;;;;5060419;28;20041;-48
2022/10/01 05:56:56;;;;;;;0.00;0.00;;;22.30;52.90;;;;;;5070047;28;20041;-48
2022/10/01 05:59:23;;;;;;;0.00;0.00;;;22.30;52.90;;;;;;5053902;28;20825;-46
2022/10/01 06:01:50;;;;;;;0.38;0.00;;;22.30;52.90;;;;;;5069598;28;20045;-47
2022/10/01 06:04:17;;;;;;;0.00;0.00;;;22.30;52.90;;;;;;5058931;28;20037;-47
2022/10/01 06:06:45;;;;;;;0.00;0.00;;;22.30;53.00;;;;;;5050114;28;20076;-49
2022/10/01 06:09:12;;;;;;;0.00;0.00;;;22.30;53.00;;;;;;5045365;28;20488;-48
2022/10/01 06:11:41;;;;;;;0.95;0.00;;;22.30;53.30;;;;;;5051084;28;20120;-48
2022/10/01 06:14:08;;;;;;;0.20;0.10;;;22.30;53.80;;;;;;5060721;28;20040;-49
2022/10/01 06:16:35;;;;;;;2.10;0.00;;;22.40;53.90;;;;;;5063289;28;20063;-48
2022/10/01 06:19:02;;;;;;;1.30;0.00;;;22.40;53.90;;;;;;5062176;28;20041;-49
2022/10/01 06:21:30;;;;;;;3.67;0.00;;;22.40;54.00;;;;;;5045237;28;20135;-49
2022/10/01 06:23:57;;;;;;;0.30;0.00;;;22.50;54.10;;;;;;5055863;28;20033;-48
2022/10/01 06:26:25;;;;;;;0.00;0.00;;;22.60;54.10;;;;;;5056310;28;20068;-49
2022/10/01 06:28:53;;;;;;;1.48;0.00;;;22.70;54.00;;;;;;5059675;28;20262;-48
2022/10/01 06:31:21;;;;;;;1.65;0.00;;;22.80;53.90;;;;;;5060582;28;20045;-53
2022/10/01 06:33:48;;;;;;;1.35;1.02;;;22.90;53.80;;;;;;5051735;28;20049;-51
2022/10/01 06:36:15;;;;;;;0.32;0.32;;;23.10;53.70;;;;;;5051984;28;20080;-53
2022/10/01 06:38:43;;;;;;;13.95;0.20;;;23.20;53.40;;;;;;5053784;28;20036;-49
2022/10/01 06:41:10;;;;;;;4.50;0.35;;;23.30;53.20;;;;;;5065534;28;20045;-57
2022/10/01 06:43:37;;;;;;;0.15;0.00;;;23.40;52.80;;;;;;5055007;28;20055;-49
2022/10/01 06:46:06;;;;;;;0.30;0.00;;;23.50;52.60;;;;;;5066252;28;20044;-49
2022/10/01 06:48:35;;;;;;;0.00;0.00;;;23.60;52.30;;;;;;5053468;28;20044;-49
2022/10/01 06:51:04;;;;;;;0.80;0.10;;;23.70;52.10;;;;;;5061146;28;20124;-49
2022/10/01 06:53:31;;;;;;;1.52;0.00;;;23.80;52.00;;;;;;5060583;28;20051;-46
2022/10/01 06:56:04;;;;;;;0.68;0.20;;;23.90;51.90;;;;;;5048546;28;20150;-48
2022/10/01 06:58:31;;;;;;;0.10;0.10;;;24.00;51.80;;;;;;5065100;28;20039;-47
2022/10/01 07:01:00;;;;;;;1.65;0.10;;;24.00;51.70;;;;;;5061939;28;20041;-48
2022/10/01 07:03:29;;;;;;;0.55;0.00;;;24.10;51.70;;;;;;5065234;28;20127;-49
2022/10/01 07:06:02;;;;;;;0.77;0.10;;;24.10;51.60;;;;;;5064111;28;20110;-48
2022/10/01 07:08:30;;;;;;;0.30;0.00;;;24.20;51.30;;;;;;5048781;28;20127;-52
2022/10/01 07:11:02;;;;;;;0.13;0.00;;;24.30;51.30;;;;;;5043160;28;20421;-48
2022/10/01 07:13:29;;;;;;;0.80;0.00;;;24.40;51.10;;;;;;5058889;28;20120;-49
2022/10/01 07:15:56;;;;;;;0.52;0.00;;;24.40;50.90;;;;;;5049572;28;20405;-48
2022/10/01 07:18:23;;;;;;;6.03;0.00;;;24.50;50.80;;;;;;5055964;28;20084;-50
2022/10/01 07:20:52;;;;;;;0.98;0.00;;;24.60;50.80;;;;;;5049915;28;20044;-49
2022/10/01 07:23:19;;;;;;;0.35;0.00;;;24.60;50.60;;;;;;5058902;28;20131;-45
2022/10/01 07:25:46;;;;;;;2.08;0.03;;;24.70;50.50;;;;;;5061632;28;20551;-47
2022/10/01 07:28:16;;;;;;;0.22;0.22;;;24.80;50.30;;;;;;5056219;28;20144;-52
2022/10/01 07:30:46;;;;;;;0.65;0.00;;;24.80;50.20;;;;;;5066330;28;20044;-50
2022/10/01 07:33:14;;;;;;;0.10;0.00;;;24.90;50.20;;;;;;5058667;28;20501;-49
2022/10/01 07:35:41;;;;;;;0.38;0.00;;;24.90;50.60;;;;;;5061191;28;20531;-49
2022/10/01 07:38:09;;;;;;;0.32;0.00;;;25.00;49.90;;;;;;5059683;28;20068;-47
2022/10/01 07:40:36;;;;;;;0.05;0.00;;;25.10;49.80;;;;;;5059290;28;20128;-53
2022/10/01 07:43:04;;;;;;;0.45;0.10;;;25.10;49.60;;;;;;5055656;28;20870;-51
2022/10/01 07:45:31;;;;;;;3.50;0.10;;;25.00;49.50;;;;;;5056521;28;20041;-50
2022/10/01 07:47:59;;;;;;;1.05;0.10;;;25.00;49.70;;;;;;5056092;28;20824;-51
2022/10/01 07:50:29;;;;;;;0.52;0.10;;;24.90;49.80;;;;;;5057354;28;20055;-46
2022/10/01 07:52:57;;;;;;;0.50;0.15;;;24.70;50.00;;;;;;5055182;28;20059;-53
2022/10/01 07:55:29;;;;;;;1.27;0.10;;;24.60;50.20;;;;;;5048671;28;20083;-52
2022/10/01 07:57:57;;;;;;;0.85;0.10;;;24.50;50.40;;;;;;5061775;28;20094;-51
2022/10/01 08:00:26;;;;;;;1.98;0.00;;;24.40;50.50;;;;;;5047738;28;20409;-49
2022/10/01 08:02:55;;;;;;;1.13;0.20;;;24.40;50.70;;;;;;5047253;28;20053;-51
2022/10/01 08:05:24;;;;;;;0.90;0.00;;;24.30;50.90;;;;;;5055978;28;20052;-56
2022/10/01 08:07:51;;;;;;;0.50;0.13;;;24.30;51.00;;;;;;5061764;28;20397;-56
2022/10/01 08:10:20;;;;;;;14.32;0.73;;;24.20;51.20;;;;;;5063751;28;20066;-50
2022/10/01 08:12:48;;;;;;;8.95;0.45;;;24.10;51.70;;;;;;5052179;28;20444;-49
2022/10/01 08:15:17;;;;;;;4.70;0.30;;;24.10;52.10;;;;;;5058057;28;20047;-52
2022/10/01 08:17:45;;;;;;;10.07;1.42;;;24.20;53.20;;;;;;5049259;28;20053;-53
2022/10/01 08:20:13;;;;;;;12.43;0.98;;;24.20;54.00;;;;;;5061730;28;20044;-51
2022/10/01 08:22:41;;;;;;;10.52;0.40;;;24.20;54.30;;;;;;5051073;28;20497;-48
2022/10/01 08:25:08;;;;;;;15.07;0.82;;;24.20;54.30;;;;;;5066609;28;20086;-49
2022/10/01 08:27:35;;;;;;;14.75;0.60;;;24.20;54.40;;;;;;5062613;28;20036;-52
2022/10/01 08:30:04;;;;;;;11.18;0.88;;;24.10;54.40;;;;;;5066779;28;20040;-50
2022/10/01 08:32:32;;;;;;;6.40;0.75;;;24.10;54.40;;;;;;5067190;28;20044;-48
2022/10/01 08:35:00;;;;;;;7.93;1.45;;;24.10;54.40;;;;;;5063856;28;20425;-51
2022/10/01 08:37:28;;;;;;;7.57;1.00;;;24.10;54.40;;;;;;5044611;28;20044;-51
2022/10/01 08:39:55;;;;;;;10.13;0.88;;;24.10;54.30;;;;;;5060900;28;20045;-50
2022/10/01 08:42:40;;;;;;;5.07;0.30;;;24.00;54.30;;;;;;5059042;28;20075;-50
2022/10/01 08:45:16;;;;;;;7.53;1.08;;;24.00;54.30;;;;;;5051596;28;20110;-53
2022/10/01 08:47:48;;;;;;;4.93;0.20;;;24.00;54.30;;;;;;5067121;28;20136;-48
2022/10/01 08:50:36;;;;;;;6.93;0.70;;;23.90;54.10;;;;;;5050067;28;20048;-50
2022/10/01 08:53:07;;;;;;;6.90;1.17;;;23.90;54.00;;;;;;5052359;28;20119;-49
2022/10/01 08:55:36;;;;;;;12.70;0.75;;;23.80;54.00;;;;;;5047366;28;20047;-48
2022/10/01 08:58:06;;;;;;;1.13;0.10;;;23.80;54.00;;;;;;5047874;28;20083;-49
2022/10/01 09:00:41;;;;;;;4.90;0.45;;;23.80;53.90;;;;;;5066621;28;20041;-51
2022/10/01 09:03:13;;;;;;;9.47;0.40;;;23.80;53.90;;;;;;5067038;28;20076;-47
2022/10/01 09:05:52;;;;;;;0.80;0.22;;;23.80;53.90;;;;;;5070588;28;20323;-49
2022/10/01 09:08:42;;;;;;;1.50;0.20;;;23.80;53.80;;;;;;5069717;28;20078;-47
2022/10/01 09:11:20;;;;;;;8.52;1.00;;;23.70;53.90;;;;;;5051622;28;20041;-47
2022/10/01 09:14:09;;;;;;;3.10;0.30;;;23.70;53.80;;;;;;5046110;28;20041;-49
2022/10/01 09:16:47;;;;;;;4.63;0.65;;;23.70;53.80;;;;;;5060412;28;20040;-51
2022/10/01 09:19:28;;;;;;;4.30;1.02;;;23.70;53.80;;;;;;5070825;28;20051;-52
2022/10/01 09:21:57;;;;;;;3.42;0.40;;;23.70;53.80;;;;;;5066549;28;20122;-49
2022/10/01 09:24:39;;;;;;;2.72;0.35;;;23.70;53.80;;;;;;5051382;28;20483;-52
2022/10/01 09:27:13;;;;;;;8.60;0.70;;;23.70;53.70;;;;;;5053765;28;20083;-47
2022/10/01 09:29:48;;;;;;;4.32;0.50;;;23.70;53.70;;;;;;5069437;28;20040;-48
2022/10/01 09:32:20;;;;;;;3.63;0.25;;;23.70;54.30;;;;;;5070675;28;20036;-49
2022/10/01 09:34:48;;;;;;;4.65;0.20;;;23.70;53.70;;;;;;5070456;28;20120;-48
2022/10/01 09:37:25;;;;;;;5.93;0.20;;;23.70;53.70;;;;;;5070158;28;20041;-50
2022/10/01 09:40:04;;;;;;;2.90;0.55;;;23.70;53.70;;;;;;5064582;28;20045;-52
2022/10/01 09:42:31;;;;;;;5.15;0.30;;;23.70;53.70;;;;;;5064622;28;20501;-52
2022/10/01 09:44:59;;;;;;;6.85;0.85;;;23.60;54.20;;;;;;5069149;28;20064;-51
2022/10/01 09:47:27;;;;;;;1.38;0.30;;;23.60;53.60;;;;;;5070706;28;20055;-47
2022/10/01 09:49:55;;;;;;;5.75;0.40;;;23.60;53.60;;;;;;5070128;28;20127;-51
2022/10/01 09:52:27;;;;;;;8.45;1.05;;;23.60;53.60;;;;;;5059393;28;20532;-50
2022/10/01 09:54:59;;;;;;;9.38;0.50;;;23.60;53.50;;;;;;5057967;28;20043;-47
2022/10/01 09:57:32;;;;;;;4.15;0.30;;;23.60;53.40;;;;;;5060458;28;20086;-48
2022/10/01 10:00:07;;;;;;;8.70;0.30;;;23.60;53.30;;;;;;5051148;28;20045;-49
2022/10/01 10:02:39;;;;;;;3.75;0.28;;;23.70;53.30;;;;;;5051175;28;20048;-49
2022/10/01 10:05:08;;;;;;;4.30;0.10;;;23.60;53.10;;;;;;5068925;28;20141;-49
2022/10/01 10:07:39;;;;;;;7.50;0.25;;;23.70;53.10;;;;;;5069871;28;20036;-48
2022/10/01 10:10:18;;;;;;;3.60;0.30;;;23.60;53.00;;;;;;5069931;28;20530;-50
2022/10/01 10:12:45;;;;;;;6.32;0.57;;;23.70;53.00;;;;;;5069565;28;20045;-50
2022/10/01 10:15:18;;;;;;;5.13;0.30;;;23.70;52.90;;;;;;5069499;28;20041;-50
2022/10/01 10:17:50;;;;;;;3.08;0.38;;;23.70;52.80;;;;;;5061200;28;20044;-50
2022/10/01 10:20:25;;;;;;;3.72;0.60;;;23.70;52.70;;;;;;5049940;28;20049;-48
2022/10/01 10:22:52;;;;;;;2.38;0.30;;;23.70;52.60;;;;;;5050382;28;20132;-49
2022/10/01 10:25:24;;;;;;;3.05;0.30;;;23.70;52.50;;;;;;5054376;28;20067;-48
2022/10/01 10:27:54;;;;;;;2.10;0.60;;;23.80;52.40;;;;;;5063218;28;20047;-49
2022/10/01 10:30:23;;;;;;;2.47;0.20;;;23.80;52.30;;;;;;5054491;28;20057;-52
2022/10/01 10:32:53;;;;;;;2.08;0.40;;;23.80;52.20;;;;;;5068056;28;20119;-49
2022/10/01 10:35:25;;;;;;;4.65;0.35;;;23.80;52.10;;;;;;5069214;28;20054;-51
2022/10/01 10:37:53;;;;;;;6.20;0.68;;;23.80;52.00;;;;;;5069275;28;20044;-52
2022/10/01 10:40:23;;;;;;;4.57;0.80;;;23.90;52.00;;;;;;5069427;28;20123;-51
2022/10/01 10:42:53;;;;;;;3.17;0.98;;;23.90;51.80;;;;;;5069240;28;20664;-48
2022/10/01 10:45:28;;;;;;;2.65;0.20;;;23.90;51.80;;;;;;5055120;28;20128;-49
2022/10/01 10:47:58;;;;;;;5.60;0.10;;;23.90;51.70;;;;;;5045350;28;20052;-47
2022/10/01 10:50:30;;;;;;;2.92;0.85;;;23.90;51.60;;;;;;5069317;28;20050;-51
2022/10/01 10:52:58;;;;;;;5.32;0.20;;;24.00;52.10;;;;;;5058863;28;20037;-52
2022/10/01 10:55:29;;;;;;;5.10;1.40;;;24.00;51.40;;;;;;5060894;28;20049;-49
2022/10/01 10:58:07;;;;;;;2.33;0.30;;;24.00;51.40;;;;;;5050264;28;20049;-52
2022/10/01 11:00:43;;;;;;;5.18;0.30;;;24.00;51.30;;;;;;5060335;28;20051;-49
2022/10/01 11:03:14;;;;;;;;;;;24.00;51.20;;;;;;5069268;28;20109;-51
2022/10/01 11:05:43;;;;;;;1.83;0.20;;;23.90;51.20;;;;;;5056612;28;19921;-51
2022/10/01 11:08:13;;;;;;;4.30;0.47;;;23.90;51.20;;;;;;5048336;28;20056;-51
2022/10/01 11:10:52;;;;;;;3.35;0.47;;;24.00;51.10;;;;;;5049690;28;20132;-49
2022/10/01 11:13:50;;;;;;;4.07;0.20;;;24.00;51.00;;;;;;5063938;28;20629;-50
2022/10/01 11:16:43;;;;;;;1.02;0.40;;;24.00;50.90;;;;;;5068811;28;20064;-50
2022/10/01 11:19:35;;;;;;;6.85;0.63;;;24.00;50.90;;;;;;5068817;28;20417;-47
2022/10/01 11:22:18;;;;;;;5.00;0.38;;;24.00;50.80;;;;;;5063864;28;20045;-48
2022/10/01 11:24:59;;;;;;;5.93;1.17;;;24.00;50.80;;;;;;5044089;28;20517;-49
2022/10/01 11:27:35;;;;;;;2.45;0.20;;;24.00;50.70;;;;;;5052252;28;20036;-49
2022/10/01 11:30:08;;;;;;;3.03;0.13;;;24.00;50.70;;;;;;5067834;28;20142;-52
2022/10/01 11:32:44;;;;;;;0.75;0.57;;;24.00;50.60;;;;;;5064541;28;20147;-49
2022/10/01 11:35:17;;;;;;;;;;;24.00;50.60;;;;;;5068850;28;20055;-50
2022/10/01 11:37:56;;;;;;;4.63;0.20;;;24.00;51.10;;;;;;5063738;28;19931;-49
2022/10/01 11:40:28;;;;;;;4.70;1.63;;;24.00;50.60;;;;;;5059576;28;20615;-48
2022/10/01 11:43:01;;;;;;;1.50;0.60;;;24.00;50.50;;;;;;5049046;28;20505;-49
2022/10/01 11:45:33;;;;;;;3.53;0.40;;;24.00;50.40;;;;;;5048899;28;20056;-50
2022/10/01 11:48:05;;;;;;;5.20;0.30;;;24.00;50.40;;;;;;5049073;28;20049;-47
2022/10/01 11:50:37;;;;;;;5.43;0.43;;;24.00;50.30;;;;;;5049225;28;20128;-47
2022/10/01 11:53:11;;;;;;;1.85;0.20;;;24.00;50.40;;;;;;5049224;28;20120;-48
2022/10/01 11:58:53;;;;;;;2.40;0.30;;;24.00;50.40;;;;;;5044681;28;20178;-46
2022/10/01 12:01:29;;;;;;;4.13;0.35;;;24.00;50.70;;;;;;5050867;28;20045;-47
2022/10/01 12:04:05;;;;;;;4.15;0.20;;;24.00;50.80;;;;;;5048509;28;20115;-47
2022/10/01 12:06:39;;;;;;;3.03;0.30;;;24.00;50.70;;;;;;5049327;28;20041;-52
2022/10/01 12:09:12;;;;;;;2.60;0.32;;;24.10;50.80;;;;;;5048744;28;20041;-49
2022/10/01 12:11:45;;;;;;;1.98;0.20;;;24.10;50.90;;;;;;5064881;28;20401;-50
2022/10/01 12:14:17;;;;;;;3.33;0.40;;;24.10;51.00;;;;;;5056782;28;20065;-48
2022/10/01 12:16:50;;;;;;;2.95;0.95;;;24.10;51.10;;;;;;5050333;28;20081;-48
2022/10/01 12:19:21;;;;;;;2.40;0.38;;;24.10;51.10;;;;;;5048746;28;20033;-50
2022/10/01 12:21:54;;;;;;;4.88;0.20;;;24.10;51.00;;;;;;5048635;28;20045;-48
2022/10/01 12:24:27;;;;;;;2.88;0.10;;;24.20;51.00;;;;;;5048143;28;20047;-49
2022/10/01 12:27:09;;;;;;;1.65;0.47;;;24.20;50.90;;;;;;5047954;28;20045;-49
2022/10/01 12:29:46;;;;;;;6.07;0.38;;;24.20;50.80;;;;;;5067285;28;20137;-51
2022/10/01 12:32:22;;;;;;;2.38;0.20;;;24.20;50.90;;;;;;5067623;28;20044;-48
2022/10/01 12:34:59;;;;;;;3.53;0.40;;;24.20;50.70;;;;;;5066344;28;20040;-49
2022/10/01 12:37:43;;;;;;;4.25;0.57;;;24.20;50.60;;;;;;5041746;28;20083;-52
2022/10/01 12:40:23;;;;;;;2.78;0.30;;;24.20;50.40;;;;;;5047828;28;20056;-49
2022/10/01 12:43:13;;;;;;;3.35;0.50;;;24.30;50.20;;;;;;5048395;28;20128;-48
2022/10/01 12:45:49;;;;;;;2.53;0.28;;;24.30;50.00;;;;;;5047176;28;20386;-49
2022/10/01 12:48:24;;;;;;;1.05;0.20;;;24.30;49.80;;;;;;5049471;28;20048;-48
2022/10/01 12:50:59;;;;;;;2.85;0.25;;;24.30;49.70;;;;;;5067393;28;20064;-49
2022/10/01 12:53:39;;;;;;;3.22;0.20;;;24.30;49.50;;;;;;5051346;28;20064;-48
2022/10/01 12:56:15;;;;;;;4.97;0.25;;;24.30;49.30;;;;;;5067270;28;20546;-49
2022/10/01 12:59:07;;;;;;;2.50;0.30;;;24.30;49.20;;;;;;5041291;28;20056;-51
2022/10/01 13:01:48;;;;;;;5.55;0.50;;;24.30;49.10;;;;;;5044953;28;20051;-49
2022/10/01 13:04:42;;;;;;;2.60;0.13;;;24.30;49.10;;;;;;5052859;28;20159;-47
2022/10/01 13:07:34;;;;;;;2.08;0.20;;;24.30;49.10;;;;;;5067381;28;20131;-46
2022/10/01 13:10:14;;;;;;;1.80;0.10;;;24.30;49.20;;;;;;5067190;28;20072;-48
2022/10/01 13:12:56;;;;;;;3.50;0.28;;;24.30;50.00;;;;;;5067098;28;20090;-48
2022/10/01 13:15:26;;;;;;;2.78;0.10;;;24.30;49.60;;;;;;5067050;28;20072;-48